»·PEaware :: N3735T KAJO-KVCV

N3735T :: KAJO-KVCV

FLIGHT INFORMATION

Flight Status: Arrived
Operator: Privately registered:
United States
More flights under this callsign
Pilot: Anonymous 31346 (31346)
Aircraft: CESSNA 172 SKYHAWK
(C172)
More flights by this aircraft type
Origin: KAJO Corona Mun
United States
Destination: KVCV Socal Logistics
United States
More flights between these airports :: More routes between these airports
Route: +PDZ V442 APLES
File this flight plan on PilotEdge
Remarks:
Altitude:
(Current/Filed)
11,000ft
Speed:
(Current/Filed)
130kts
Departed: 28-Sep-20 05:55 PM
Arrived: 28-Sep-20 07:04 PM
Distance/Time
Traveled:
43nm/1:09
Distance/Time
To Go:
Arrived

Flight Plot

Page will automatically refresh every two minutes.


Map Options




Map Legend


Flown Route
Filed Route
Departure Airport
Arrival Airport
Navaid (VOR, NDB)
Fix

Horizontal Profiles

Position Reports

Time Latitude Longitude Heading Altitude Ground
Speed
28-Sep-20 17:28 33.896978 -117.607296 180 537ft 0kts
28-Sep-20 17:29 33.896978 -117.607296 180 537ft 0kts
28-Sep-20 17:30 33.896978 -117.607296 180 537ft 0kts
28-Sep-20 17:31 33.896978 -117.607296 180 537ft 0kts
28-Sep-20 17:32 33.896978 -117.607296 180 537ft 0kts
28-Sep-20 17:33 33.896978 -117.607296 180 537ft 0kts
28-Sep-20 17:33 33.896978 -117.607296 180 537ft 0kts
28-Sep-20 17:35 33.896978 -117.607296 180 537ft 0kts
28-Sep-20 17:36 33.896978 -117.607296 180 537ft 0kts
28-Sep-20 17:36 33.896978 -117.607296 180 537ft 0kts
28-Sep-20 17:37 33.896978 -117.607296 180 537ft 0kts
28-Sep-20 17:39 33.896978 -117.607296 180 537ft 0kts
28-Sep-20 17:39 33.896978 -117.607296 180 537ft 0kts
28-Sep-20 17:40 33.896978 -117.607296 180 537ft 0kts
28-Sep-20 17:41 33.896978 -117.607296 180 537ft 0kts
28-Sep-20 17:42 33.896978 -117.607296 180 537ft 0kts
28-Sep-20 17:43 33.896978 -117.607296 180 537ft 0kts
28-Sep-20 17:45 33.896978 -117.607296 180 537ft 0kts
28-Sep-20 17:46 33.896978 -117.607296 180 537ft 0kts
28-Sep-20 17:47 33.896978 -117.607296 180 537ft 0kts
28-Sep-20 17:48 33.896978 -117.607296 180 537ft 0kts
28-Sep-20 17:49 33.896978 -117.607296 180 537ft 0kts
28-Sep-20 17:50 33.896978 -117.607296 180 537ft 0kts
28-Sep-20 17:51 33.896978 -117.607296 180 537ft 0kts
28-Sep-20 17:52 33.896977 -117.607257 52 537ft 3kts
28-Sep-20 17:53 33.897319 -117.607409 339 537ft 0kts
28-Sep-20 17:54 33.899006 -117.596400 70 1000ft 52kts
28-Sep-20 17:55 33.905234 -117.574337 71 1833ft 79kts
28-Sep-20 17:56 33.912637 -117.548484 69 2799ft 83kts
28-Sep-20 17:57 33.923757 -117.524577 40 3633ft 94kts
28-Sep-20 17:58 33.946696 -117.500852 10 3821ft 130kts
28-Sep-20 17:59 33.938357 -117.521703 197 3927ft 128kts
28-Sep-20 18:00 33.913528 -117.546540 298 4152ft 113kts
28-Sep-20 18:01 33.933047 -117.537007 44 5172ft 83kts
28-Sep-20 18:02 33.950255 -117.518209 43 5940ft 82kts
28-Sep-20 18:03 33.942666 -117.512338 221 6578ft 85kts
28-Sep-20 18:04 33.924832 -117.528054 201 7292ft 78kts
28-Sep-20 18:05 33.930556 -117.534322 35 7905ft 75kts
28-Sep-20 18:06 33.947146 -117.519328 33 8499ft 74kts
28-Sep-20 18:07 33.965841 -117.505157 32 8867ft 98kts
28-Sep-20 18:08 33.994242 -117.486340 31 8886ft 125kts
28-Sep-20 18:09 34.025844 -117.466323 28 8876ft 129kts
28-Sep-20 18:10 34.057272 -117.445435 30 8924ft 126kts
28-Sep-20 18:11 34.089220 -117.425417 33 8878ft 129kts
28-Sep-20 18:12 34.121467 -117.405575 26 8799ft 134kts
28-Sep-20 18:13 34.153220 -117.385723 26 8894ft 129kts
28-Sep-20 18:14 34.185359 -117.365669 24 8960ft 127kts
28-Sep-20 18:15 34.216873 -117.343713 29 8934ft 130kts
28-Sep-20 18:16 34.249412 -117.323109 28 8873ft 129kts
28-Sep-20 18:17 34.281627 -117.305385 31 8880ft 132kts
28-Sep-20 18:18 34.314972 -117.286812 29 8636ft 143kts
28-Sep-20 18:19 34.347803 -117.268248 27 8749ft 130kts
28-Sep-20 18:20 34.379201 -117.250053 27 8922ft 125kts
28-Sep-20 18:21 34.411203 -117.230444 27 8925ft 125kts
28-Sep-20 18:22 34.443581 -117.210784 28 8844ft 129kts
28-Sep-20 18:23 34.475424 -117.189949 20 8451ft 135kts
28-Sep-20 18:24 34.507342 -117.172472 27 8055ft 121kts
28-Sep-20 18:25 34.534859 -117.155414 32 8089ft 111kts
28-Sep-20 18:26 34.566077 -117.145799 8 7746ft 131kts
28-Sep-20 18:27 34.603892 -117.143865 354 6929ft 138kts
28-Sep-20 18:28 34.640158 -117.148808 350 6524ft 124kts
28-Sep-20 18:29 34.670879 -117.160163 340 6528ft 114kts
28-Sep-20 18:30 34.697915 -117.179615 331 6476ft 114kts
28-Sep-20 18:31 34.723386 -117.199503 329 6601ft 101kts
28-Sep-20 18:32 34.746799 -117.222912 312 6530ft 126kts
28-Sep-20 18:33 34.768338 -117.257558 304 6532ft 127kts
28-Sep-20 18:34 34.783713 -117.296259 286 6463ft 134kts
28-Sep-20 18:35 34.795583 -117.340160 278 5188ft 108kts
28-Sep-20 18:36 34.780367 -117.361367 214 5173ft 82kts
28-Sep-20 18:37 34.753937 -117.372146 182 4589ft 111kts
28-Sep-20 18:38 34.724872 -117.378066 188 4299ft 101kts
28-Sep-20 18:39 34.698858 -117.381444 189 4148ft 91kts
28-Sep-20 18:40 34.668946 -117.383289 190 3443ft 113kts
28-Sep-20 18:41 34.641322 -117.385673 180 3490ft 85kts
28-Sep-20 18:42 34.614786 -117.385292 184 3767ft 99kts
28-Sep-20 18:43 34.585280 -117.387124 192 3958ft 102kts
28-Sep-20 18:44 34.583176 -117.411796 313 4404ft 92kts
28-Sep-20 18:45 34.597874 -117.434338 299 4945ft 84kts
28-Sep-20 18:46 34.605526 -117.462589 294 5339ft 89kts
28-Sep-20 18:47 34.609813 -117.478315 288 5617ft 84kts
28-Sep-20 18:48 34.617606 -117.504929 300 5948ft 94kts
28-Sep-20 18:49 34.626469 -117.538319 286 5926ft 115kts
28-Sep-20 18:50 34.631876 -117.578426 276 5879ft 116kts
28-Sep-20 18:51 34.638827 -117.617179 280 5843ft 116kts
28-Sep-20 18:52 34.645861 -117.656161 288 5404ft 138kts
28-Sep-20 18:53 34.671139 -117.658984 76 4532ft 125kts
28-Sep-20 18:54 34.663713 -117.620426 120 4206ft 113kts
28-Sep-20 18:55 34.649164 -117.588355 112 4253ft 104kts
28-Sep-20 18:56 34.638901 -117.551173 110 3923ft 116kts
28-Sep-20 18:57 34.627604 -117.515235 122 3774ft 117kts
28-Sep-20 18:58 34.615122 -117.480969 122 3850ft 100kts
28-Sep-20 18:59 34.608174 -117.447212 99 3771ft 114kts
28-Sep-20 19:00 34.609475 -117.410833 50 3795ft 92kts
28-Sep-20 19:01 34.627166 -117.384182 78 3795ft 108kts
28-Sep-20 19:02 34.606987 -117.362507 175 3105ft 112kts
28-Sep-20 19:03 34.590970 -117.377869 227 2866ft 26kts
28-Sep-20 19:04 34.591044 -117.379349 319 2866ft 0kts
28-Sep-20 19:05 34.589177 -117.375530 108 2868ft 23kts

Navigation Log

Ident Type
Flight plan parsing failed, navigation log unavailable